Time;durP1;ratioP1;P1;durP2;ratioP2;P2;SDS_P1;SDS_P2;PMS_P1;PMS_P2;Temp;Humidity;BMP_temperature;BMP_pressure;BME280_temperature;BME280_humidity;BME280_pressure;Samples;Min_cycle;Max_cycle;Signal;HPM_P1;HPM_P2
2023/09/24 00:00:57;;;;;;;8.52;4.78;;;;;;;8.88;100.00;102202.75;4950232;28;20703;-70
2023/09/24 00:03:23;;;;;;;6.72;3.97;;;;;;;8.85;100.00;102201.03;4965240;28;20514;-70
2023/09/24 00:05:49;;;;;;;5.60;4.20;;;;;;;8.82;100.00;102198.47;4950351;28;20424;-70
2023/09/24 00:08:14;;;;;;;9.07;4.50;;;;;;;8.83;100.00;102204.78;4950874;28;20042;-70
2023/09/24 00:10:40;;;;;;;8.40;4.05;;;;;;;8.81;100.00;102209.38;4965147;28;20142;-69
2023/09/24 00:13:05;;;;;;;10.73;4.55;;;;;;;8.81;100.00;102213.00;4965532;28;20035;-70
2023/09/24 00:15:32;;;;;;;8.07;4.07;;;;;;;8.80;100.00;102211.22;4950861;28;20042;-70
2023/09/24 00:17:59;;;;;;;8.40;4.55;;;;;;;8.79;100.00;102219.44;4951052;29;20507;-70
2023/09/24 00:20:24;;;;;;;10.20;4.47;;;;;;;8.79;100.00;102223.03;4950395;28;20054;-70
2023/09/24 00:22:50;;;;;;;10.32;4.55;;;;;;;8.79;100.00;102211.28;4950531;28;20432;-69
2023/09/24 00:25:15;;;;;;;6.90;4.93;;;;;;;8.80;100.00;102216.63;4950491;29;20125;-70
2023/09/24 00:27:41;;;;;;;5.95;4.20;;;;;;;8.80;100.00;102229.31;4950607;28;20102;-70
2023/09/24 00:30:09;;;;;;;8.50;4.03;;;;;;;8.79;100.00;102222.13;4981520;28;20023;-70
2023/09/24 00:32:35;;;;;;;10.60;4.78;;;;;;;8.79;100.00;102208.56;4950480;28;20372;-70
2023/09/24 00:35:01;;;;;;;8.07;4.88;;;;;;;8.80;100.00;102216.63;4965494;28;20046;-69
2023/09/24 00:37:27;;;;;;;6.75;4.47;;;;;;;8.81;100.00;102222.94;4981708;28;20042;-70
2023/09/24 00:39:52;;;;;;;11.02;4.47;;;;;;;8.80;100.00;102232.03;4961752;28;20105;-70
2023/09/24 00:42:17;;;;;;;7.95;4.50;;;;;;;8.79;100.00;102233.00;4955403;28;20023;-70
2023/09/24 00:44:43;;;;;;;11.75;4.50;;;;;;;8.76;100.00;102231.28;4983200;28;20042;-70
2023/09/24 00:47:09;;;;;;;10.25;4.32;;;;;;;8.75;100.00;102234.06;4954127;28;20054;-69
2023/09/24 00:49:35;;;;;;;8.00;4.78;;;;;;;8.73;100.00;102231.44;4968724;28;20071;-69
2023/09/24 00:52:01;;;;;;;8.93;4.50;;;;;;;8.71;100.00;102236.03;4968859;28;20455;-69
2023/09/24 00:54:27;;;;;;;7.60;4.50;;;;;;;8.71;100.00;102243.28;4985273;28;20035;-70
2023/09/24 00:56:58;;;;;;;6.13;4.88;;;;;;;8.68;100.00;102242.47;4984854;28;20035;-69
2023/09/24 00:59:25;;;;;;;10.07;5.40;;;;;;;8.68;100.00;102242.47;4968719;28;20073;-69
2023/09/24 01:01:50;;;;;;;8.50;5.28;;;;;;;8.68;100.00;102244.31;4953898;29;20047;-70
2023/09/24 01:04:16;;;;;;;7.85;5.28;;;;;;;8.64;100.00;102234.53;4953691;28;20395;-70
2023/09/24 01:06:42;;;;;;;8.93;5.80;;;;;;;8.68;100.00;102241.59;4953815;28;20495;-70
2023/09/24 01:09:09;;;;;;;10.02;5.15;;;;;;;8.65;100.00;102236.28;4953144;28;20047;-70
2023/09/24 01:11:34;;;;;;;9.40;5.32;;;;;;;8.62;100.00;102230.97;4984571;28;20039;-70
2023/09/24 01:14:00;;;;;;;11.68;6.05;;;;;;;8.64;100.00;102234.53;4954016;28;20101;-69
2023/09/24 01:16:25;;;;;;;12.13;7.07;;;;;;;8.66;100.00;102238.03;4984755;28;20047;-70
2023/09/24 01:18:53;;;;;;;9.85;6.53;;;;;;;8.66;100.00;102235.34;4952204;28;20375;-70
2023/09/24 01:21:18;;;;;;;9.63;6.30;;;;;;;8.66;100.00;102233.50;4968280;28;20186;-70
2023/09/24 01:23:45;;;;;;;12.70;6.53;;;;;;;8.66;100.00;102238.94;4984521;28;20039;-70
2023/09/24 01:26:16;;;;;;;9.55;5.80;;;;;;;8.65;100.00;102239.88;4984381;28;20050;-70
2023/09/24 01:28:43;;;;;;;14.25;6.43;;;;;;;8.61;100.00;102230.09;4953450;28;20400;-71
2023/09/24 01:31:08;;;;;;;10.05;5.57;;;;;;;8.62;100.00;102236.41;4952952;28;20023;-70
2023/09/24 01:33:38;;;;;;;14.75;6.70;;;;;;;8.62;100.00;102237.28;4967823;28;20027;-70
2023/09/24 01:36:04;;;;;;;12.38;6.03;;;;;;;8.59;100.00;102244.69;4952972;28;20103;-70
2023/09/24 01:38:29;;;;;;;14.40;5.85;;;;;;;8.55;100.00;102243.94;4968170;28;20027;-70
2023/09/24 01:40:54;;;;;;;12.50;5.75;;;;;;;8.53;100.00;102234.97;4953106;28;20042;-70
2023/09/24 01:43:20;;;;;;;12.00;6.47;;;;;;;8.50;100.00;102236.94;4984143;28;20035;-70
2023/09/24 01:45:47;;;;;;;9.05;6.18;;;;;;;8.43;100.00;102234.47;4984087;28;20121;-70
2023/09/24 01:48:14;;;;;;;11.52;6.45;;;;;;;8.43;100.00;102231.75;4967891;28;20150;-70
2023/09/24 01:50:41;;;;;;;15.18;6.45;;;;;;;8.43;100.00;102237.16;4983715;28;20039;-71
2023/09/24 01:53:08;;;;;;;9.00;6.55;;;;;;;8.43;100.00;102226.31;4953075;29;20518;-70
2023/09/24 01:55:36;;;;;;;12.55;6.45;;;;;;;8.42;100.00;102232.69;4952352;28;20114;-70
2023/09/24 01:58:02;;;;;;;9.52;6.35;;;;;;;8.43;100.00;102226.31;4952768;28;20054;-71
2023/09/24 02:00:27;;;;;;;13.27;7.10;;;;;;;8.43;100.00;102231.75;4983372;28;20119;-70
2023/09/24 02:02:54;;;;;;;12.98;7.50;;;;;;;8.42;100.00;102232.69;4983802;28;20039;-70
2023/09/24 02:05:20;;;;;;;11.70;6.40;;;;;;;8.38;100.00;102238.31;4966765;28;20031;-70
2023/09/24 02:07:49;;;;;;;11.98;7.20;;;;;;;8.40;100.00;102239.16;4983796;28;20038;-70
2023/09/24 02:10:17;;;;;;;11.88;7.53;;;;;;;8.37;100.00;102236.56;4998130;28;20061;-70
2023/09/24 02:12:44;;;;;;;12.38;6.22;;;;;;;8.35;100.00;102225.75;4985997;28;20045;-71
2023/09/24 02:15:15;;;;;;;9.93;6.50;;;;;;;8.32;100.00;102228.56;4983603;28;20039;-70
2023/09/24 02:17:41;;;;;;;11.35;7.05;;;;;;;8.32;100.00;102234.00;4967138;28;20107;-70
2023/09/24 02:20:25;;;;;;;10.02;6.40;;;;;;;8.30;100.00;102238.63;4983189;28;20090;-70
2023/09/24 02:22:53;;;;;;;16.23;7.45;;;;;;;8.31;100.00;102251.22;4952596;29;20325;-70
2023/09/24 02:25:21;;;;;;;10.85;6.40;;;;;;;8.25;100.00;102246.03;4983081;28;20423;-70
2023/09/24 02:27:53;;;;;;;9.85;6.00;;;;;;;8.25;100.00;102259.56;4952444;28;20043;-70
2023/09/24 02:30:24;;;;;;;13.10;5.90;;;;;;;8.23;100.00;102264.19;4951236;29;20420;-70
2023/09/24 02:32:50;;;;;;;8.48;5.82;;;;;;;8.20;100.00;102267.00;4952192;28;20487;-71
2023/09/24 02:35:16;;;;;;;9.93;7.18;;;;;;;8.18;100.00;102266.19;4966854;28;20042;-70
2023/09/24 02:37:44;;;;;;;13.80;6.20;;;;;;;8.14;100.00;102257.28;4982877;28;20078;-70
2023/09/24 02:40:21;;;;;;;10.07;6.45;;;;;;;8.14;100.00;102261.84;4952262;28;20391;-70
2023/09/24 02:42:48;;;;;;;10.38;6.40;;;;;;;8.13;100.00;102262.78;4983041;28;20466;-69
2023/09/24 02:45:15;;;;;;;11.05;6.38;;;;;;;8.09;100.00;102263.84;4966739;28;20043;-70
2023/09/24 02:47:42;;;;;;;10.07;5.68;;;;;;;8.07;100.00;102260.34;4982845;28;20035;-70
2023/09/24 02:50:14;;;;;;;9.00;6.70;;;;;;;8.07;100.00;102263.94;4951853;28;20437;-69
2023/09/24 02:52:45;;;;;;;8.05;6.07;;;;;;;8.07;100.00;102255.78;4952033;28;20186;-70
2023/09/24 02:55:13;;;;;;;10.33;6.17;;;;;;;8.06;100.00;102255.84;4951859;29;20114;-69
2023/09/24 02:57:39;;;;;;;13.80;7.63;;;;;;;8.06;100.00;102261.25;4951814;28;20302;-70
2023/09/24 03:00:17;;;;;;;9.95;6.68;;;;;;;8.04;100.00;102252.31;4966341;28;20802;-69
2023/09/24 03:02:42;;;;;;;9.18;6.63;;;;;;;8.04;100.00;102253.19;4966562;28;20050;-69
2023/09/24 03:05:11;;;;;;;10.05;7.22;;;;;;;8.02;100.00;102255.09;4951487;28;20476;-69
2023/09/24 03:07:44;;;;;;;10.30;6.93;;;;;;;8.01;100.00;102257.84;4950163;28;20042;-71
2023/09/24 03:10:10;;;;;;;11.60;6.72;;;;;;;8.03;100.00;102258.69;4965856;28;20035;-70
2023/09/24 03:12:36;;;;;;;10.07;5.90;;;;;;;7.99;100.00;102270.59;4951306;28;20050;-69
2023/09/24 03:15:03;;;;;;;11.27;6.30;;;;;;;7.96;100.00;102262.56;4951647;28;20039;-69
2023/09/24 03:17:28;;;;;;;11.80;6.78;;;;;;;7.95;100.00;102266.22;4982744;28;20023;-69
2023/09/24 03:19:54;;;;;;;12.80;6.75;;;;;;;7.96;100.00;102273.41;4981956;28;20121;-70
2023/09/24 03:22:21;;;;;;;8.88;6.72;;;;;;;7.94;100.00;102273.47;4950778;28;20046;-70
2023/09/24 03:24:47;;;;;;;15.23;6.88;;;;;;;7.93;100.00;102269.88;4951242;28;20111;-70
2023/09/24 03:27:15;;;;;;;9.02;5.90;;;;;;;7.91;100.00;102266.31;4982227;28;20027;-70
2023/09/24 03:29:43;;;;;;;10.48;6.13;;;;;;;7.90;100.00;102275.41;4951057;28;20039;-70
2023/09/24 03:32:09;;;;;;;15.90;6.45;;;;;;;7.90;100.00;102285.38;4982130;28;20023;-70
2023/09/24 03:34:34;;;;;;;11.73;6.22;;;;;;;7.88;100.00;102277.31;4965783;28;20038;-69
2023/09/24 03:37:00;;;;;;;13.82;6.80;;;;;;;7.86;100.00;102276.47;4982403;28;20031;-70
2023/09/24 03:39:25;;;;;;;8.75;6.13;;;;;;;7.86;100.00;102283.72;4951746;28;20086;-70
2023/09/24 03:41:51;;;;;;;11.93;5.82;;;;;;;7.85;100.00;102290.06;4982212;28;20537;-70
2023/09/24 03:44:17;;;;;;;10.43;6.30;;;;;;;7.83;100.00;102289.22;4981775;28;20031;-69
2023/09/24 03:46:43;;;;;;;14.73;7.07;;;;;;;7.84;100.00;102293.72;4951210;28;20122;-69
2023/09/24 03:49:08;;;;;;;10.07;6.50;;;;;;;7.83;100.00;102302.78;4981583;28;20046;-70
2023/09/24 03:51:33;;;;;;;10.05;6.45;;;;;;;7.81;100.00;102291.13;4981961;28;20175;-69
2023/09/24 03:53:59;;;;;;;12.75;6.70;;;;;;;7.80;100.00;102295.66;4951107;29;20530;-69
2023/09/24 03:56:24;;;;;;;10.43;6.40;;;;;;;7.79;100.00;102295.75;4965599;28;20387;-69
2023/09/24 03:58:50;;;;;;;8.13;6.07;;;;;;;7.79;100.00;102293.03;4981916;28;20027;-69
2023/09/24 04:01:17;;;;;;;10.82;6.38;;;;;;;7.78;100.00;102299.38;4950882;28;20047;-69
2023/09/24 04:03:43;;;;;;;12.48;6.60;;;;;;;7.78;100.00;102302.06;4950836;28;20495;-70
2023/09/24 04:06:10;;;;;;;13.02;6.90;;;;;;;7.77;100.00;102297.59;4981730;28;20093;-70
2023/09/24 04:08:36;;;;;;;11.23;6.60;;;;;;;7.74;100.00;102295.91;4983089;28;20102;-69
2023/09/24 04:11:01;;;;;;;11.75;6.13;;;;;;;7.73;100.00;102299.53;4966095;28;20113;-69
2023/09/24 04:13:27;;;;;;;12.95;6.75;;;;;;;7.71;100.00;102304.13;4951011;29;20027;-70
2023/09/24 04:15:52;;;;;;;10.35;6.30;;;;;;;7.68;100.00;102304.25;4950819;28;20067;-69
2023/09/24 04:18:18;;;;;;;11.68;6.13;;;;;;;7.70;100.00;102307.78;4951839;28;20094;-69
2023/09/24 04:20:43;;;;;;;12.65;6.68;;;;;;;7.71;100.00;102303.25;4985808;28;20074;-70
2023/09/24 04:23:11;;;;;;;12.32;5.88;;;;;;;7.70;100.00;102299.66;4969662;28;20200;-70
2023/09/24 04:25:37;;;;;;;12.43;6.15;;;;;;;7.72;100.00;102308.59;4954522;28;20122;-70
2023/09/24 04:28:03;;;;;;;12.30;6.15;;;;;;;7.70;100.00;102312.34;4954633;28;20475;-70
2023/09/24 04:30:29;;;;;;;16.00;6.75;;;;;;;7.71;100.00;102314.09;4953665;29;20038;-70
2023/09/24 04:32:56;;;;;;;11.85;6.10;;;;;;;7.69;100.00;102311.41;4954448;29;20058;-69
2023/09/24 04:35:22;;;;;;;10.70;5.85;;;;;;;7.66;100.00;102306.13;4954178;28;20035;-69
2023/09/24 04:37:48;;;;;;;10.90;5.50;;;;;;;7.68;100.00;102312.38;4985264;28;20125;-70
2023/09/24 04:40:16;;;;;;;12.35;6.80;;;;;;;7.67;100.00;102307.91;4954147;28;20455;-69
2023/09/24 04:42:43;;;;;;;7.53;5.65;;;;;;;7.67;100.00;102313.31;4954208;28;20154;-70
2023/09/24 04:45:12;;;;;;;10.48;6.25;;;;;;;7.67;100.00;102319.63;4969015;28;20031;-70
2023/09/24 04:47:39;;;;;;;12.75;6.43;;;;;;;7.68;100.00;102317.78;4954248;28;20039;-70
2023/09/24 04:50:06;;;;;;;9.55;5.75;;;;;;;7.67;100.00;102326.84;4953753;28;20066;-70
2023/09/24 04:52:33;;;;;;;11.80;5.82;;;;;;;7.65;100.00;102317.91;4954348;28;20065;-70
2023/09/24 04:54:58;;;;;;;10.75;5.43;;;;;;;7.63;100.00;102323.38;4954261;28;20054;-69
2023/09/24 04:57:24;;;;;;;14.45;6.20;;;;;;;7.63;100.00;102319.78;4953968;28;20035;-70
2023/09/24 04:59:53;;;;;;;9.57;5.75;;;;;;;7.61;100.00;102314.44;4953743;28;20039;-69
2023/09/24 05:02:20;;;;;;;9.15;4.97;;;;;;;7.62;100.00;102318.91;4954032;28;20050;-69
2023/09/24 05:04:49;;;;;;;14.00;5.65;;;;;;;7.63;100.00;102317.06;4953920;29;20043;-69
2023/09/24 05:07:15;;;;;;;10.07;5.30;;;;;;;7.64;100.00;102318.84;4953409;28;20019;-69
2023/09/24 05:09:40;;;;;;;8.93;5.40;;;;;;;7.62;100.00;102316.19;4978723;28;20054;-70
2023/09/24 05:12:06;;;;;;;11.38;6.82;;;;;;;7.62;100.00;102323.44;4961871;28;20031;-69
2023/09/24 05:14:31;;;;;;;8.57;5.63;;;;;;;7.58;100.00;102319.06;4954181;28;20505;-69
2023/09/24 05:16:58;;;;;;;13.10;5.13;;;;;;;7.61;100.00;102325.25;4969137;28;20503;-69
2023/09/24 05:19:23;;;;;;;7.43;4.78;;;;;;;7.59;100.00;102321.72;4953540;28;20027;-69
2023/09/24 05:21:49;;;;;;;10.55;5.68;;;;;;;7.58;100.00;102330.78;4953742;28;20046;-70
2023/09/24 05:24:14;;;;;;;11.23;5.45;;;;;;;7.55;100.00;102333.59;4953674;29;20031;-69
2023/09/24 05:26:40;;;;;;;8.52;5.13;;;;;;;7.59;100.00;102340.66;4981889;28;20463;-70
2023/09/24 05:29:05;;;;;;;10.98;5.85;;;;;;;7.56;100.00;102346.22;4971757;28;20559;-69
2023/09/24 05:31:31;;;;;;;11.60;5.28;;;;;;;7.56;100.00;102342.63;4965429;28;20022;-69
2023/09/24 05:33:56;;;;;;;7.47;4.88;;;;;;;7.55;100.00;102344.41;4992885;28;20027;-69
2023/09/24 05:36:22;;;;;;;7.07;5.03;;;;;;;7.54;100.00;102361.63;4971282;28;20110;-70
2023/09/24 05:38:48;;;;;;;7.85;5.40;;;;;;;7.54;100.00;102353.50;4995967;28;20035;-69
2023/09/24 05:41:14;;;;;;;7.97;5.82;;;;;;;7.53;100.00;102367.97;4984123;28;20038;-69
2023/09/24 05:43:44;;;;;;;8.65;5.30;;;;;;;7.52;100.00;102368.03;4984427;28;20106;-70
2023/09/24 05:46:11;;;;;;;7.35;5.28;;;;;;;7.54;100.00;102363.44;4952983;28;20252;-69
2023/09/24 05:48:36;;;;;;;6.70;4.75;;;;;;;7.54;100.00;102374.28;4967744;28;20031;-69
2023/09/24 05:51:03;;;;;;;9.02;5.18;;;;;;;7.55;100.00;102379.63;4984143;28;20086;-70
2023/09/24 05:53:28;;;;;;;8.13;5.50;;;;;;;7.59;100.00;102380.41;4953439;28;20050;-69
2023/09/24 05:55:55;;;;;;;9.20;5.07;;;;;;;7.56;100.00;102380.53;4952853;28;20039;-70
2023/09/24 05:58:21;;;;;;;8.88;5.07;;;;;;;7.59;100.00;102378.59;4953158;29;20043;-69
2023/09/24 06:00:47;;;;;;;8.15;5.45;;;;;;;7.62;100.00;102386.63;4983641;28;20051;-70
2023/09/24 06:03:14;;;;;;;7.18;5.35;;;;;;;7.63;100.00;102382.97;4953135;29;20047;-70
2023/09/24 06:05:40;;;;;;;10.40;5.60;;;;;;;7.67;100.00;102383.75;4983577;28;20086;-70
2023/09/24 06:08:06;;;;;;;10.10;5.57;;;;;;;7.71;100.00;102376.41;4952674;28;20043;-69
2023/09/24 06:10:32;;;;;;;7.95;5.03;;;;;;;7.75;100.00;102375.34;4983637;28;20030;-71
2023/09/24 06:12:57;;;;;;;10.00;5.10;;;;;;;7.78;100.00;102377.94;4972330;28;20109;-71
2023/09/24 06:15:23;;;;;;;11.30;5.28;;;;;;;7.84;100.00;102375.00;4972230;28;20093;-70
2023/09/24 06:17:49;;;;;;;9.85;6.45;;;;;;;7.90;100.00;102375.66;4972101;28;20034;-69
2023/09/24 06:20:16;;;;;;;12.95;6.45;;;;;;;7.97;100.00;102391.69;4967720;28;20054;-69
2023/09/24 06:22:42;;;;;;;8.68;5.78;;;;;;;8.00;100.00;102387.03;4952476;29;20046;-69
2023/09/24 06:25:08;;;;;;;10.15;5.32;;;;;;;8.07;100.00;102379.59;4951273;29;20043;-70
2023/09/24 06:27:34;;;;;;;8.27;5.22;;;;;;;8.13;100.00;102382.06;5008264;28;20603;-71
2023/09/24 06:30:02;;;;;;;12.55;5.72;;;;;;;8.18;100.00;102389.06;4991589;28;20490;-69
2023/09/24 06:32:29;;;;;;;12.23;6.28;;;;;;;8.22;100.00;102392.56;4991375;28;20121;-70
2023/09/24 06:34:54;;;;;;;8.77;5.78;;;;;;;8.25;100.00;102394.25;4999076;28;20031;-70
2023/09/24 06:37:20;;;;;;;11.95;6.28;;;;;;;8.31;100.00;102399.47;4966891;28;20145;-69
2023/09/24 06:39:45;;;;;;;12.55;6.18;;;;;;;8.36;100.00;102400.16;4952189;28;20090;-69
2023/09/24 06:42:10;;;;;;;8.90;5.88;;;;;;;8.39;100.00;102392.84;4950833;28;20115;-70
2023/09/24 06:44:36;;;;;;;14.15;6.32;;;;;;;8.43;100.00;102399.00;4983197;28;20040;-69
2023/09/24 06:47:01;;;;;;;12.35;5.65;;;;;;;8.49;100.00;102403.34;5001083;28;20490;-69
2023/09/24 06:49:26;;;;;;;15.25;7.90;;;;;;;8.53;100.00;102402.25;4962759;28;20078;-69
2023/09/24 06:51:53;;;;;;;10.70;5.78;;;;;;;8.57;100.00;102406.63;4951817;28;20411;-69
2023/09/24 06:54:19;;;;;;;11.50;5.88;;;;;;;8.61;100.00;102409.16;4951951;29;20503;-68
2023/09/24 06:56:45;;;;;;;13.13;6.00;;;;;;;8.66;100.00;102414.38;4951727;28;20035;-69
2023/09/24 06:59:10;;;;;;;13.23;5.85;;;;;;;8.69;100.00;102411.56;4951786;28;20035;-69
2023/09/24 07:01:39;;;;;;;10.73;5.78;;;;;;;8.71;100.00;102403.34;4956966;28;20608;-69
2023/09/24 07:04:11;;;;;;;9.15;5.95;;;;;;;8.75;100.00;102410.44;5052031;28;20403;-70
2023/09/24 07:06:37;;;;;;;12.90;5.32;;;;;;;8.77;100.00;102409.44;5046213;28;20037;-70
2023/09/24 07:09:05;;;;;;;11.73;5.72;;;;;;;8.83;100.00;102416.44;5045405;28;20025;-68
2023/09/24 07:11:34;;;;;;;10.27;5.63;;;;;;;8.89;100.00;102408.94;5058973;28;20018;-69
2023/09/24 07:13:59;;;;;;;9.82;5.80;;;;;;;8.91;100.00;102409.78;5046247;28;20132;-69
2023/09/24 07:16:26;;;;;;;8.38;5.78;;;;;;;8.97;100.00;102414.06;5061560;28;20095;-68
2023/09/24 07:18:53;;;;;;;13.23;5.82;;;;;;;9.02;100.00;102411.16;5058940;28;20068;-68
2023/09/24 07:21:25;;;;;;;11.90;6.40;;;;;;;9.11;100.00;102414.38;5051189;28;20027;-70
2023/09/24 07:23:52;;;;;;;13.65;5.95;;;;;;;9.19;100.00;102414.06;5057344;28;20034;-68
2023/09/24 07:26:18;;;;;;;12.82;6.78;;;;;;;9.26;100.00;102414.69;5046566;28;20457;-68
2023/09/24 07:28:44;;;;;;;13.02;6.18;;;;;;;9.37;100.00;102424.16;5044812;28;20029;-70
2023/09/24 07:31:21;;;;;;;11.32;6.15;;;;;;;9.53;100.00;102424.38;5045956;28;20378;-68
2023/09/24 07:33:51;;;;;;;9.45;5.40;;;;;;;9.76;100.00;102431.56;5045674;28;20485;-70
2023/09/24 07:36:17;;;;;;;11.07;5.60;;;;;;;9.95;100.00;102428.91;5053808;28;20116;-70
2023/09/24 07:38:43;;;;;;;13.43;6.28;;;;;;;10.05;100.00;102432.09;5062471;28;20489;-69
2023/09/24 07:41:09;;;;;;;13.23;7.05;;;;;;;10.15;100.00;102434.31;5045337;28;20032;-70
2023/09/24 07:43:44;;;;;;;16.42;7.07;;;;;;;10.26;100.00;102436.63;5063909;28;20079;-69
2023/09/24 07:46:14;;;;;;;16.20;6.40;;;;;;;10.34;100.00;102442.56;5065313;28;20048;-69
2023/09/24 07:48:44;;;;;;;14.75;5.50;;;;;;;10.44;100.00;102443.94;5062950;28;20606;-70
2023/09/24 07:51:10;;;;;;;15.40;7.22;;;;;;;10.55;100.00;102445.25;5054144;28;20041;-69
2023/09/24 07:53:35;;;;;;;13.85;6.03;;;;;;;10.67;100.00;102436.50;5045466;28;20025;-69
2023/09/24 07:56:08;;;;;;;13.60;5.72;;;;;;;10.79;100.00;102449.53;5044900;28;20041;-69
2023/09/24 07:58:35;;;;;;;13.45;5.13;;;;;;;10.92;100.00;102448.00;5047491;28;20445;-69
2023/09/24 08:01:05;;;;;;;10.20;4.47;;;;;;;11.06;100.00;102447.34;5064123;28;20226;-70
2023/09/24 08:03:31;;;;;;;9.90;4.38;;;;;;;11.21;100.00;102443.84;5057257;28;20059;-69
2023/09/24 08:05:57;;;;;;;8.77;4.43;;;;;;;11.36;100.00;102449.50;5062820;28;20039;-69
2023/09/24 08:08:24;;;;;;;10.20;3.85;;;;;;;11.48;100.00;102440.72;5065122;28;20480;-70
2023/09/24 08:10:52;;;;;;;10.07;4.40;;;;;;;11.63;100.00;102448.09;5061655;28;20090;-71
2023/09/24 08:13:19;;;;;;;9.20;3.83;;;;;;;11.83;100.00;102438.91;5045128;28;20518;-70
2023/09/24 08:15:45;;;;;;;9.35;3.83;;;;;;;11.97;100.00;102446.38;5031353;28;20396;-70
2023/09/24 08:18:12;;;;;;;6.13;3.92;;;;;;;12.13;100.00;102443.72;5030686;28;20072;-69
2023/09/24 08:20:39;;;;;;;8.30;3.50;;;;;;;12.22;100.00;102443.25;5039634;28;20044;-70
2023/09/24 08:23:04;;;;;;;10.32;3.80;;;;;;;12.33;100.00;102442.66;5030506;28;20095;-69
2023/09/24 08:25:30;;;;;;;6.38;3.17;;;;;;;12.42;100.00;102451.22;5030656;28;20037;-69
2023/09/24 08:27:56;;;;;;;6.70;3.25;;;;;;;12.49;100.00;102451.75;5047735;28;20028;-70
2023/09/24 08:30:21;;;;;;;9.70;3.35;;;;;;;12.57;100.00;102448.63;5051691;28;20045;-70
2023/09/24 08:32:46;;;;;;;6.35;3.05;;;;;;;12.67;100.00;102447.13;5050503;28;20476;-71
2023/09/24 08:35:12;;;;;;;6.10;2.85;;;;;;;12.79;100.00;102443.72;5032061;28;20393;-71
2023/09/24 08:37:37;;;;;;;9.57;3.42;;;;;;;12.93;100.00;102459.34;5043842;28;20029;-71
2023/09/24 08:40:03;;;;;;;7.90;2.53;;;;;;;13.09;100.00;102457.47;5044463;28;20048;-70
2023/09/24 08:42:31;;;;;;;6.22;2.35;;;;;;;13.25;100.00;102457.53;5038002;28;20481;-70
2023/09/24 08:45:09;;;;;;;4.88;2.33;;;;;;;13.38;100.00;102463.13;5030174;28;20059;-70
2023/09/24 08:47:35;;;;;;;8.93;2.22;;;;;;;13.42;100.00;102460.13;5031151;28;20053;-69
2023/09/24 08:50:03;;;;;;;4.75;2.45;;;;;;;13.53;100.00;102460.41;5030180;28;20099;-71
2023/09/24 08:52:34;;;;;;;4.97;2.08;;;;;;;13.65;98.81;102456.06;5051267;28;20496;-71
2023/09/24 08:55:02;;;;;;;3.50;2.10;;;;;;;13.72;100.00;102464.78;5051346;28;20512;-71
2023/09/24 08:57:27;;;;;;;4.85;1.80;;;;;;;13.80;99.99;102456.97;5038153;28;20076;-70
2023/09/24 08:59:52;;;;;;;3.53;1.92;;;;;;;13.88;99.03;102456.53;5030992;28;20033;-70
2023/09/24 09:02:18;;;;;;;8.40;1.80;;;;;;;13.94;97.54;102457.06;5030739;28;20080;-69
2023/09/24 09:04:48;;;;;;;5.55;1.90;;;;;;;14.01;93.35;102460.28;5030824;28;20045;-70
2023/09/24 09:07:13;;;;;;;4.82;1.75;;;;;;;14.09;93.46;102466.19;5047872;28;20040;-71
2023/09/24 09:09:39;;;;;;;4.47;1.65;;;;;;;14.15;95.53;102456.69;5045138;28;20025;-70
2023/09/24 09:12:04;;;;;;;4.07;1.75;;;;;;;14.26;96.81;102457.78;5030356;28;20041;-71
2023/09/24 09:14:35;;;;;;;7.25;1.75;;;;;;;14.43;95.08;102454.00;5029807;28;20041;-70
2023/09/24 09:17:02;;;;;;;4.38;1.73;;;;;;;14.59;91.30;102448.44;5031117;28;20048;-71
2023/09/24 09:19:28;;;;;;;6.93;2.55;;;;;;;14.78;92.47;102460.00;5029700;28;20102;-70
2023/09/24 09:21:53;;;;;;;5.45;1.60;;;;;;;15.01;93.22;102444.81;5030400;28;20052;-70
2023/09/24 09:24:28;;;;;;;4.55;1.80;;;;;;;15.13;89.96;102440.38;5030585;28;20766;-72
2023/09/24 09:26:57;;;;;;;6.40;1.65;;;;;;;15.32;91.71;102435.41;5036767;28;20113;-70
2023/09/24 09:29:24;;;;;;;5.97;1.85;;;;;;;15.39;84.28;102433.16;5049233;28;20104;-70
2023/09/24 09:31:50;;;;;;;3.13;1.83;;;;;;;15.41;87.74;102420.22;5050457;28;20036;-70
2023/09/24 09:34:16;;;;;;;7.05;1.95;;;;;;;15.50;88.65;102421.47;5045184;28;20554;-70
2023/09/24 09:36:42;;;;;;;5.75;2.00;;;;;;;15.56;86.43;102410.06;5041780;28;20063;-70
2023/09/24 09:39:08;;;;;;;4.05;1.50;;;;;;;15.62;86.24;102414.22;5044027;28;20094;-71
2023/09/24 09:41:33;;;;;;;4.97;1.85;;;;;;;15.70;86.21;102418.25;5033469;28;20101;-70
2023/09/24 09:44:05;;;;;;;4.05;1.30;;;;;;;15.81;84.09;102414.78;5050485;28;20141;-70
2023/09/24 09:46:33;;;;;;;3.17;2.07;;;;;;;15.95;83.86;102416.56;5050499;28;20044;-71
2023/09/24 09:49:06;;;;;;;7.15;1.60;;;;;;;16.10;81.37;102410.00;5045189;28;20037;-70
2023/09/24 09:51:48;;;;;;;4.18;1.83;;;;;;;16.31;85.52;102402.06;5030494;28;20493;-70
2023/09/24 09:54:15;;;;;;;8.30;1.88;;;;;;;16.45;82.21;102403.81;5028684;28;20120;-70
2023/09/24 09:56:41;;;;;;;5.07;1.80;;;;;;;16.72;80.88;102398.22;5029642;28;20065;-72
2023/09/24 09:59:08;;;;;;;4.90;1.45;;;;;;;16.87;77.78;102408.06;5029822;28;20059;-72
2023/09/24 10:01:34;;;;;;;4.78;1.30;;;;;;;16.99;78.80;102398.91;5029772;28;20065;-71
2023/09/24 10:04:02;;;;;;;4.13;1.40;;;;;;;17.25;79.40;102399.72;5029742;28;20461;-71
2023/09/24 10:06:29;;;;;;;3.00;1.23;;;;;;;17.36;75.48;102396.13;5028890;28;20694;-71
2023/09/24 10:08:54;;;;;;;5.75;1.63;;;;;;;17.42;78.77;102389.28;5042863;28;20524;-71
2023/09/24 10:11:32;;;;;;;5.38;1.33;;;;;;;17.40;76.69;102389.41;5029817;28;20129;-71
2023/09/24 10:14:02;;;;;;;2.60;1.17;;;;;;;17.49;76.02;102382.31;5027096;28;20515;-71
2023/09/24 10:16:28;;;;;;;3.45;1.40;;;;;;;17.59;75.38;102378.72;5028512;28;20048;-72
2023/09/24 10:19:12;;;;;;;2.92;1.30;;;;;;;17.74;74.45;102378.56;5029546;28;20125;-70
2023/09/24 10:21:39;;;;;;;6.72;2.03;;;;;;;17.96;72.72;102377.75;5028787;28;20033;-71
2023/09/24 10:24:13;;;;;;;3.60;1.10;;;;;;;18.19;74.49;102373.16;5027444;28;20580;-70
2023/09/24 10:26:47;;;;;;;4.10;1.58;;;;;;;18.31;74.72;102374.91;5027560;28;20501;-72
2023/09/24 10:29:13;;;;;;;2.50;1.38;;;;;;;18.55;74.97;102369.28;5028985;28;20429;-70
2023/09/24 10:32:06;;;;;;;5.53;1.73;;;;;;;18.89;75.08;102370.19;5029063;28;20152;-71
2023/09/24 10:34:59;;;;;;;3.33;1.52;;;;;;;19.05;72.74;102373.38;5015351;28;20504;-70
2023/09/24 10:37:26;;;;;;;5.15;1.35;;;;;;;19.07;64.09;102364.97;5041880;28;20025;-71
2023/09/24 10:40:09;;;;;;;2.88;1.10;;;;;;;19.18;65.08;102359.44;5027225;28;20111;-71
2023/09/24 10:42:42;;;;;;;4.85;1.35;;;;;;;19.27;67.43;102357.78;5027410;28;20049;-71
2023/09/24 10:45:07;;;;;;;4.22;1.52;;;;;;;19.52;63.23;102368.47;5028962;28;20124;-71
2023/09/24 10:47:40;;;;;;;1.80;1.02;;;;;;;19.77;65.54;102358.06;5035277;28;20112;-71
2023/09/24 10:50:09;;;;;;;2.33;1.00;;;;;;;19.87;65.04;102362.69;5047917;28;20116;-73
2023/09/24 10:52:52;;;;;;;3.55;1.10;;;;;;;19.92;66.29;102355.88;5029133;28;20462;-71
2023/09/24 10:55:28;;;;;;;2.65;1.40;;;;;;;19.95;63.55;102353.69;5028688;28;20047;-71
2023/09/24 10:57:54;;;;;;;2.72;1.23;;;;;;;20.33;63.66;102354.94;5031169;28;20045;-72
2023/09/24 11:00:21;;;;;;;3.33;1.40;;;;;;;20.40;60.86;102347.84;5028750;28;20400;-72
2023/09/24 11:02:54;;;;;;;3.42;1.05;;;;;;;20.44;62.65;102349.31;5028268;28;20397;-70
2023/09/24 11:05:20;;;;;;;4.70;1.48;;;;;;;;;;5027979;28;20068;-72
2023/09/24 11:07:45;;;;;;;4.07;1.40;;;;;;;20.55;59.40;102349.25;5035916;28;20499;-72
2023/09/24 11:10:10;;;;;;;4.90;1.08;;;;;;;20.65;58.33;102354.81;5048579;28;20330;-72
2023/09/24 11:12:36;;;;;;;6.88;1.60;;;;;;;20.49;56.13;102344.28;5034407;28;20505;-72
2023/09/24 11:15:02;;;;;;;3.95;1.42;;;;;;;20.56;58.04;102350.13;5027797;28;20065;-72
2023/09/24 11:17:28;;;;;;;4.20;1.20;;;;;;;20.67;60.85;102349.16;5027429;28;20456;-71
2023/09/24 11:19:53;;;;;;;3.47;1.45;;;;;;;20.62;55.77;102352.34;5028814;28;20052;-72
2023/09/24 11:22:26;;;;;;;3.55;1.27;;;;;;;20.60;59.18;102348.81;5027322;28;20061;-72